Time;durP1;ratioP1;P1;durP2;ratioP2;P2;SDS_P1;SDS_P2;PMS_P1;PMS_P2;Temp;Humidity;BMP_temperature;BMP_pressure;BME280_temperature;BME280_humidity;BME280_pressure;Samples;Min_cycle;Max_cycle;Signal;HPM_P1;HPM_P2
2022/12/18 00:01:22;;;;;;;9.73;5.67;;;-3.50;99.90;;;;;;4977962;28;20183;-75
2022/12/18 00:03:48;;;;;;;11.03;6.30;;;-3.50;99.90;;;;;;4965976;28;20183;-75
2022/12/18 00:06:14;;;;;;;10.27;6.17;;;-3.60;99.90;;;;;;4981533;28;20206;-75
2022/12/18 00:08:41;;;;;;;9.33;5.40;;;-3.60;99.90;;;;;;4964178;28;20187;-75
2022/12/18 00:11:11;;;;;;;12.30;6.63;;;-3.60;99.90;;;;;;4977615;28;20202;-75
2022/12/18 00:13:37;;;;;;;12.23;7.33;;;-3.60;99.90;;;;;;4978252;28;20207;-76
2022/12/18 00:16:09;;;;;;;11.07;6.73;;;-3.60;99.90;;;;;;4979684;28;20402;-75
2022/12/18 00:18:36;;;;;;;14.07;7.23;;;-3.70;99.90;;;;;;4978472;28;20245;-76
2022/12/18 00:21:07;;;;;;;13.30;8.27;;;-3.70;99.90;;;;;;4978365;28;20179;-75
2022/12/18 00:23:33;;;;;;;14.37;7.93;;;-3.80;99.90;;;;;;4972146;28;20223;-75
2022/12/18 00:26:07;;;;;;;14.13;7.27;;;-3.80;99.90;;;;;;4969030;28;20181;-75
2022/12/18 00:28:37;;;;;;;14.37;7.40;;;-3.90;99.90;;;;;;4966786;28;20187;-76
2022/12/18 00:31:11;;;;;;;11.83;7.13;;;-3.90;99.90;;;;;;4971001;28;20179;-75
2022/12/18 00:33:37;;;;;;;11.53;6.80;;;-3.90;99.90;;;;;;4977938;28;20184;-76
2022/12/18 00:36:05;;;;;;;13.07;7.20;;;-3.90;99.90;;;;;;4968329;28;20192;-75
2022/12/18 00:38:31;;;;;;;17.43;9.87;;;-4.00;99.90;;;;;;4983242;28;20180;-76
2022/12/18 00:40:57;;;;;;;13.97;8.13;;;-4.00;99.90;;;;;;4977485;28;20185;-77
2022/12/18 00:43:25;;;;;;;14.57;7.53;;;-4.00;99.90;;;;;;4973427;28;20207;-75
2022/12/18 00:45:52;;;;;;;14.27;7.20;;;-4.00;99.90;;;;;;4970873;28;20213;-76
2022/12/18 00:48:18;;;;;;;13.10;6.57;;;-4.10;99.90;;;;;;4973898;28;20226;-75
2022/12/18 00:50:47;;;;;;;12.13;7.37;;;-4.10;99.90;;;;;;4982553;28;20222;-75
2022/12/18 00:53:17;;;;;;;13.77;7.50;;;-4.10;99.90;;;;;;4975830;28;20178;-75
2022/12/18 00:55:46;;;;;;;11.20;6.30;;;-4.10;99.90;;;;;;4981180;28;20285;-75
2022/12/18 00:58:13;;;;;;;14.17;7.33;;;-4.10;99.90;;;;;;4981479;28;20264;-75
2022/12/18 01:00:39;;;;;;;12.23;6.67;;;-4.10;99.90;;;;;;4977040;28;20186;-76
2022/12/18 01:03:05;;;;;;;10.40;6.17;;;-4.10;99.90;;;;;;4980576;28;20297;-76
2022/12/18 01:05:31;;;;;;;13.00;6.57;;;-4.10;99.90;;;;;;4967562;28;20187;-75
2022/12/18 01:07:57;;;;;;;13.80;7.33;;;-4.20;99.90;;;;;;4980882;28;20179;-76
2022/12/18 01:10:24;;;;;;;13.20;7.90;;;-4.20;99.90;;;;;;4977609;28;20207;-75
2022/12/18 01:12:50;;;;;;;12.43;7.47;;;-4.20;99.90;;;;;;4982498;28;20194;-75
2022/12/18 01:15:16;;;;;;;13.17;7.53;;;-4.20;99.90;;;;;;4995761;28;20222;-75
2022/12/18 01:17:44;;;;;;;15.43;8.63;;;-4.20;99.90;;;;;;4981171;28;20207;-76
2022/12/18 01:20:13;;;;;;;13.57;8.20;;;-4.20;99.90;;;;;;4980989;28;20179;-75
2022/12/18 01:22:39;;;;;;;14.53;7.90;;;-4.20;99.90;;;;;;4972038;28;20476;-76
2022/12/18 01:25:05;;;;;;;12.30;6.87;;;-4.20;99.90;;;;;;4974325;28;20203;-74
2022/12/18 01:27:32;;;;;;;12.73;6.57;;;-4.30;99.90;;;;;;4978816;28;20180;-76
2022/12/18 01:29:58;;;;;;;13.17;7.47;;;-4.30;99.90;;;;;;4981966;28;20175;-76
2022/12/18 01:32:23;;;;;;;10.87;6.43;;;-4.30;99.90;;;;;;4978128;28;20207;-75
2022/12/18 01:34:49;;;;;;;12.37;7.57;;;-4.30;99.90;;;;;;4977245;28;20203;-75
2022/12/18 01:37:15;;;;;;;11.20;7.00;;;-4.30;99.90;;;;;;4977477;28;20211;-74
2022/12/18 01:39:45;;;;;;;14.17;7.20;;;-4.40;99.90;;;;;;4975607;28;20290;-74
2022/12/18 01:42:17;;;;;;;12.77;7.43;;;-4.40;99.90;;;;;;4985825;28;20281;-74
2022/12/18 01:44:57;;;;;;;13.60;7.47;;;-4.40;99.90;;;;;;4981825;28;20184;-74
2022/12/18 01:47:45;;;;;;;12.10;6.97;;;-4.30;99.90;;;;;;4972566;28;20175;-73
2022/12/18 01:50:29;;;;;;;13.17;7.37;;;-4.40;99.90;;;;;;4970389;28;20203;-76
2022/12/18 01:53:15;;;;;;;16.47;9.50;;;-4.40;99.90;;;;;;4978158;28;20269;-74
2022/12/18 01:55:46;;;;;;;15.17;8.60;;;-4.40;99.90;;;;;;4993921;28;20190;-75
2022/12/18 01:58:12;;;;;;;14.37;8.83;;;-4.40;99.90;;;;;;4979283;28;20194;-75
2022/12/18 02:00:38;;;;;;;15.43;9.40;;;-4.40;99.90;;;;;;4979633;28;20199;-76
2022/12/18 02:03:04;;;;;;;16.00;8.47;;;-4.50;99.90;;;;;;4979867;28;20203;-74
2022/12/18 02:05:50;;;;;;;14.60;8.03;;;-4.50;99.90;;;;;;4990081;28;20179;-74
2022/12/18 02:08:15;;;;;;;16.90;8.27;;;-4.50;99.90;;;;;;4975757;28;20195;-75
2022/12/18 02:10:46;;;;;;;13.73;7.97;;;-4.50;99.90;;;;;;4980219;28;20195;-75
2022/12/18 02:13:48;;;;;;;16.03;8.30;;;-4.50;99.90;;;;;;4979741;28;20183;-76
2022/12/18 02:16:25;;;;;;;15.83;8.13;;;-4.50;99.90;;;;;;4946594;28;20242;-75
2022/12/18 02:18:56;;;;;;;14.70;8.53;;;-4.50;99.90;;;;;;4978119;28;20179;-75
2022/12/18 02:21:24;;;;;;;16.17;8.27;;;-4.60;99.90;;;;;;4978790;28;20179;-75
2022/12/18 02:24:31;;;;;;;14.33;7.93;;;-4.60;99.90;;;;;;4980019;28;20175;-75
2022/12/18 02:27:01;;;;;;;16.53;8.50;;;-4.60;99.90;;;;;;4951890;28;20234;-75
2022/12/18 02:29:36;;;;;;;13.30;7.40;;;-4.60;99.90;;;;;;4974320;28;20199;-75
2022/12/18 02:32:12;;;;;;;13.03;7.23;;;-4.60;99.90;;;;;;4978610;28;20182;-75
2022/12/18 02:34:43;;;;;;;10.93;7.10;;;-4.50;99.90;;;;;;4970887;28;20266;-74
2022/12/18 02:37:14;;;;;;;11.93;6.57;;;-4.60;99.90;;;;;;4974031;28;20199;-75
2022/12/18 02:39:43;;;;;;;16.10;8.83;;;-4.60;99.90;;;;;;4979792;28;20183;-75
2022/12/18 02:42:09;;;;;;;15.67;8.03;;;-4.60;99.90;;;;;;4977766;28;20261;-77
2022/12/18 02:44:44;;;;;;;19.17;9.70;;;-4.60;99.90;;;;;;4978937;28;20282;-75
2022/12/18 02:47:14;;;;;;;15.33;8.53;;;-4.60;99.90;;;;;;4965845;28;20184;-75
2022/12/18 02:49:57;;;;;;;14.83;7.93;;;-4.60;99.90;;;;;;4977901;28;20194;-75
2022/12/18 02:52:41;;;;;;;12.97;7.50;;;-4.60;99.90;;;;;;4968211;28;20330;-75
2022/12/18 02:55:28;;;;;;;12.03;6.83;;;-4.60;99.90;;;;;;4978239;28;20233;-75
2022/12/18 02:57:53;;;;;;;11.73;6.70;;;-4.60;99.90;;;;;;4979178;28;20175;-75
2022/12/18 03:00:23;;;;;;;10.93;6.13;;;-4.60;99.90;;;;;;4977810;28;20180;-76
2022/12/18 03:03:01;;;;;;;11.73;6.97;;;-4.60;99.90;;;;;;4978181;28;20199;-76
2022/12/18 03:05:33;;;;;;;11.67;6.70;;;-4.60;99.90;;;;;;4960976;28;20206;-75
2022/12/18 03:08:06;;;;;;;10.73;6.50;;;-4.60;99.90;;;;;;4978358;28;20215;-76
2022/12/18 03:10:39;;;;;;;12.13;6.60;;;-4.60;99.90;;;;;;4967237;28;20242;-77
2022/12/18 03:13:08;;;;;;;11.93;6.40;;;-4.60;99.90;;;;;;4974861;28;20206;-74
2022/12/18 03:15:49;;;;;;;11.70;6.30;;;-4.60;99.90;;;;;;4998022;28;20260;-76
2022/12/18 03:18:35;;;;;;;12.23;7.00;;;-4.70;99.90;;;;;;4987642;28;20178;-75
2022/12/18 03:21:05;;;;;;;16.73;8.83;;;-4.70;99.90;;;;;;4966736;28;20226;-75
2022/12/18 03:23:43;;;;;;;12.73;7.30;;;-4.60;99.90;;;;;;4978248;28;20257;-75
2022/12/18 03:26:12;;;;;;;14.87;7.90;;;-4.60;99.90;;;;;;4978478;28;20232;-75
2022/12/18 03:28:43;;;;;;;11.70;6.70;;;-4.70;99.90;;;;;;4968999;28;20168;-75
2022/12/18 03:31:13;;;;;;;13.83;7.57;;;-4.70;99.90;;;;;;4969337;28;20266;-74
2022/12/18 03:33:54;;;;;;;12.27;7.27;;;-4.70;99.90;;;;;;4975466;28;20206;-74
2022/12/18 03:36:20;;;;;;;12.73;7.10;;;-4.70;99.90;;;;;;4978546;28;20179;-75
2022/12/18 03:38:45;;;;;;;12.90;7.67;;;-4.70;99.90;;;;;;4971942;28;20188;-74
2022/12/18 03:41:30;;;;;;;13.97;7.80;;;-4.70;99.90;;;;;;4978200;28;20195;-76
2022/12/18 03:44:03;;;;;;;13.40;7.27;;;-4.70;99.90;;;;;;4973621;28;20176;-76
2022/12/18 03:46:47;;;;;;;12.03;6.83;;;-4.70;99.90;;;;;;4975341;28;20187;-75
2022/12/18 03:49:43;;;;;;;13.40;7.40;;;-4.80;99.90;;;;;;4979767;28;20187;-74
2022/12/18 03:52:21;;;;;;;13.53;7.77;;;-4.70;99.90;;;;;;4970588;28;20256;-76
2022/12/18 03:54:50;;;;;;;13.83;8.20;;;-4.80;99.90;;;;;;4978121;28;20202;-74
2022/12/18 03:57:25;;;;;;;16.80;9.80;;;-4.80;99.90;;;;;;4978220;28;20183;-75
2022/12/18 04:00:03;;;;;;;14.00;7.93;;;-4.80;99.90;;;;;;4975987;28;20183;-75
2022/12/18 04:02:33;;;;;;;12.73;7.13;;;-4.80;99.90;;;;;;4973323;28;20206;-75
2022/12/18 04:05:02;;;;;;;12.60;7.70;;;-4.70;99.90;;;;;;4978317;28;20274;-75
2022/12/18 04:07:28;;;;;;;20.13;10.37;;;-4.80;99.90;;;;;;4977265;28;20199;-75
2022/12/18 04:10:01;;;;;;;13.93;8.33;;;-4.80;99.90;;;;;;4978314;28;20190;-75
2022/12/18 04:12:31;;;;;;;15.60;8.50;;;-4.80;99.90;;;;;;4981884;28;20190;-75
2022/12/18 04:14:59;;;;;;;13.70;7.70;;;-4.80;99.90;;;;;;4991100;28;20208;-75
2022/12/18 04:17:25;;;;;;;15.50;9.07;;;-4.80;99.90;;;;;;4974502;28;20265;-75
2022/12/18 04:19:53;;;;;;;12.43;7.87;;;-4.90;99.90;;;;;;4968070;28;20266;-75
2022/12/18 04:22:21;;;;;;;15.47;8.53;;;-4.90;99.90;;;;;;4982207;28;20206;-76
2022/12/18 04:24:46;;;;;;;11.47;6.73;;;-4.90;99.90;;;;;;4982211;28;20186;-76
2022/12/18 04:27:14;;;;;;;12.03;6.67;;;-4.90;99.90;;;;;;4980598;28;20180;-75
2022/12/18 04:29:40;;;;;;;11.47;7.27;;;-4.90;99.90;;;;;;4978304;28;20168;-75
2022/12/18 04:32:06;;;;;;;11.60;6.87;;;-4.90;99.90;;;;;;4982948;28;20225;-75
2022/12/18 04:34:32;;;;;;;14.90;8.87;;;-4.90;99.90;;;;;;4977369;28;20195;-75
2022/12/18 04:37:00;;;;;;;14.60;8.10;;;-4.90;99.90;;;;;;4962959;28;20268;-75
2022/12/18 04:39:25;;;;;;;13.77;8.37;;;-4.80;99.90;;;;;;4981309;28;20194;-75
2022/12/18 04:41:51;;;;;;;15.57;8.97;;;-4.90;99.90;;;;;;4981662;28;20204;-74
2022/12/18 04:44:19;;;;;;;17.23;9.80;;;-4.80;99.90;;;;;;4975964;28;20202;-75
2022/12/18 04:46:44;;;;;;;16.10;8.90;;;-4.80;99.90;;;;;;4976967;28;20199;-75
2022/12/18 04:49:12;;;;;;;14.97;8.43;;;-4.80;99.90;;;;;;4981908;28;20207;-76
2022/12/18 04:51:38;;;;;;;12.37;8.13;;;-4.90;99.90;;;;;;4981835;28;20254;-75
2022/12/18 04:54:06;;;;;;;13.43;8.03;;;-4.90;99.90;;;;;;4978228;28;20358;-75
2022/12/18 04:56:32;;;;;;;13.50;7.43;;;-4.90;99.90;;;;;;4976003;28;20266;-75
2022/12/18 04:58:57;;;;;;;13.20;7.57;;;-4.90;99.90;;;;;;4978478;28;20238;-76
2022/12/18 05:01:23;;;;;;;11.80;6.50;;;-4.90;99.90;;;;;;4972853;28;20246;-75
2022/12/18 05:03:50;;;;;;;14.57;7.80;;;-4.90;99.90;;;;;;4975778;28;20199;-75
2022/12/18 05:06:18;;;;;;;12.73;7.47;;;-4.90;99.90;;;;;;4981454;28;20182;-75
2022/12/18 05:08:46;;;;;;;11.90;6.90;;;-4.90;99.90;;;;;;4976987;28;20287;-75
2022/12/18 05:11:15;;;;;;;13.77;7.03;;;-4.90;99.90;;;;;;4971599;28;20195;-76
2022/12/18 05:13:41;;;;;;;15.47;8.03;;;-4.90;99.90;;;;;;4979985;28;20171;-75
2022/12/18 05:16:07;;;;;;;19.10;10.97;;;-5.00;99.90;;;;;;4979451;28;20362;-75
2022/12/18 05:18:34;;;;;;;17.37;9.47;;;-4.90;99.90;;;;;;4979895;28;20233;-75
2022/12/18 05:21:00;;;;;;;15.17;9.07;;;-5.00;99.90;;;;;;4966686;28;20176;-75
2022/12/18 05:23:27;;;;;;;19.03;10.57;;;-5.00;99.90;;;;;;4973773;28;20268;-75
2022/12/18 05:26:01;;;;;;;18.77;10.93;;;-5.00;99.90;;;;;;4966937;28;20180;-75
2022/12/18 05:28:33;;;;;;;15.53;9.27;;;-5.00;99.90;;;;;;4973094;28;20290;-75
2022/12/18 05:31:02;;;;;;;18.00;9.60;;;-5.00;99.90;;;;;;4969091;28;20230;-75
2022/12/18 05:33:32;;;;;;;12.97;8.00;;;-5.00;99.90;;;;;;4977585;28;20190;-75
2022/12/18 05:36:02;;;;;;;16.23;8.40;;;-5.00;99.90;;;;;;4979530;28;20199;-75
2022/12/18 05:38:30;;;;;;;14.27;7.97;;;-5.00;99.90;;;;;;4980921;28;20198;-75
2022/12/18 05:40:58;;;;;;;15.93;8.30;;;-5.00;99.90;;;;;;4976366;28;20242;-74
2022/12/18 05:43:27;;;;;;;12.63;7.60;;;-5.00;99.90;;;;;;4967173;28;20302;-75
2022/12/18 05:45:53;;;;;;;12.73;7.70;;;-5.00;99.90;;;;;;4961586;28;20184;-75
2022/12/18 05:48:20;;;;;;;12.90;6.90;;;-5.00;99.90;;;;;;4965843;28;20179;-74
2022/12/18 05:50:51;;;;;;;12.53;7.40;;;-5.00;99.90;;;;;;4979638;28;20186;-75
2022/12/18 05:53:20;;;;;;;13.03;7.17;;;-5.00;99.90;;;;;;4972708;28;20180;-75
2022/12/18 05:55:49;;;;;;;11.23;6.87;;;-5.00;99.90;;;;;;4973083;28;20293;-75
2022/12/18 05:58:17;;;;;;;12.60;7.43;;;-5.00;99.90;;;;;;4991122;28;20184;-76
2022/12/18 06:00:48;;;;;;;15.80;6.57;;;-5.00;99.90;;;;;;4976933;28;20266;-75
2022/12/18 06:03:14;;;;;;;11.57;6.87;;;-4.90;99.90;;;;;;4962724;28;20251;-76
2022/12/18 06:05:47;;;;;;;13.10;7.97;;;-5.00;99.90;;;;;;4978195;28;20214;-75
2022/12/18 06:08:13;;;;;;;11.63;6.60;;;-4.90;99.90;;;;;;4971311;28;20176;-75
2022/12/18 06:10:39;;;;;;;12.93;7.40;;;-5.00;99.90;;;;;;4950756;28;1068065;-76
2022/12/18 06:13:08;;;;;;;13.93;7.33;;;-4.90;99.90;;;;;;4981778;28;20209;-76
2022/12/18 06:15:37;;;;;;;12.53;7.07;;;-4.90;99.90;;;;;;4962180;28;20183;-75
2022/12/18 06:18:05;;;;;;;10.77;6.53;;;-4.90;99.90;;;;;;4974194;28;20179;-75
2022/12/18 06:20:36;;;;;;;10.87;6.37;;;-4.90;99.90;;;;;;4979893;28;20211;-76
2022/12/18 06:23:01;;;;;;;15.07;8.27;;;-4.90;99.90;;;;;;4980633;28;20210;-74
2022/12/18 06:25:27;;;;;;;15.60;8.53;;;-4.90;99.90;;;;;;4970567;28;20179;-73
2022/12/18 06:27:55;;;;;;;12.43;6.83;;;-4.90;99.90;;;;;;4979675;28;20262;-74
2022/12/18 06:30:22;;;;;;;11.67;6.33;;;-4.90;99.90;;;;;;4991217;28;20337;-74
2022/12/18 06:32:51;;;;;;;10.93;6.57;;;-4.90;99.90;;;;;;4976451;28;20184;-74
2022/12/18 06:35:16;;;;;;;11.07;6.47;;;-4.90;99.90;;;;;;4978304;28;20191;-74
2022/12/18 06:37:44;;;;;;;13.20;7.57;;;-4.90;99.90;;;;;;4979992;28;20181;-74
2022/12/18 06:40:10;;;;;;;11.20;6.63;;;-4.90;99.90;;;;;;4964146;28;20184;-73
2022/12/18 06:42:36;;;;;;;10.17;6.20;;;-4.90;99.90;;;;;;4990573;28;20211;-73
2022/12/18 06:45:04;;;;;;;10.83;7.13;;;-4.90;99.90;;;;;;4978634;28;20211;-74
2022/12/18 06:47:30;;;;;;;10.40;6.47;;;-4.80;99.90;;;;;;4971257;28;20221;-74
2022/12/18 06:50:00;;;;;;;13.37;7.57;;;-4.90;99.90;;;;;;4978889;28;20469;-73
2022/12/18 06:52:28;;;;;;;13.10;7.80;;;-4.80;99.90;;;;;;4979162;28;20207;-73
2022/12/18 06:54:54;;;;;;;17.23;10.37;;;-4.80;99.90;;;;;;4976912;28;20184;-74
2022/12/18 06:57:19;;;;;;;17.80;9.57;;;-4.80;99.90;;;;;;4978943;28;20179;-74
2022/12/18 06:59:45;;;;;;;15.17;8.63;;;-4.80;99.90;;;;;;4976095;28;20266;-74
2022/12/18 07:02:12;;;;;;;12.00;7.57;;;-4.70;99.90;;;;;;4984849;28;20214;-73
2022/12/18 07:04:40;;;;;;;13.80;8.33;;;-4.70;99.90;;;;;;4978977;28;20182;-73
2022/12/18 07:07:06;;;;;;;12.53;7.17;;;-4.70;99.90;;;;;;4979269;28;20183;-73
2022/12/18 07:09:31;;;;;;;13.90;7.77;;;-4.70;99.90;;;;;;4967261;28;20204;-73
2022/12/18 07:11:59;;;;;;;13.27;7.90;;;-4.70;99.90;;;;;;4959886;28;20223;-73
2022/12/18 07:14:27;;;;;;;14.43;8.70;;;-4.60;99.90;;;;;;4977309;28;20179;-74
2022/12/18 07:16:55;;;;;;;13.53;8.30;;;-4.60;99.90;;;;;;4995820;28;20218;-74
2022/12/18 07:19:24;;;;;;;15.07;9.03;;;-4.60;99.90;;;;;;4979118;28;20183;-74
2022/12/18 07:21:52;;;;;;;13.77;7.60;;;-4.60;99.90;;;;;;4978971;28;20199;-74
2022/12/18 07:24:20;;;;;;;11.83;7.50;;;-4.60;99.90;;;;;;4978953;28;20182;-74
2022/12/18 07:26:48;;;;;;;12.27;7.27;;;-4.60;99.90;;;;;;4979045;28;20199;-74
2022/12/18 07:29:14;;;;;;;15.07;8.63;;;-4.70;99.90;;;;;;4979085;28;20179;-73
2022/12/18 07:31:40;;;;;;;12.27;6.90;;;-4.70;99.90;;;;;;4979089;28;20272;-74
2022/12/18 07:34:09;;;;;;;15.10;8.27;;;-4.70;99.90;;;;;;4987747;28;20345;-73
2022/12/18 07:36:36;;;;;;;13.93;8.70;;;-4.60;99.90;;;;;;4978479;28;20187;-74
2022/12/18 07:39:02;;;;;;;14.03;8.13;;;-4.60;99.90;;;;;;4970826;28;20200;-75
2022/12/18 07:41:33;;;;;;;14.77;8.30;;;-4.70;99.90;;;;;;4974917;28;20183;-74
2022/12/18 07:43:58;;;;;;;14.17;7.90;;;-4.70;99.90;;;;;;4964124;28;20187;-74
2022/12/18 07:46:24;;;;;;;13.97;8.00;;;-4.70;99.90;;;;;;4995043;28;20206;-74
2022/12/18 07:48:52;;;;;;;12.30;6.97;;;-4.70;99.90;;;;;;4985345;28;20163;-73
2022/12/18 07:51:18;;;;;;;11.87;7.13;;;-4.70;99.90;;;;;;4998089;28;20194;-73
2022/12/18 07:53:47;;;;;;;10.37;6.47;;;-4.70;99.90;;;;;;4997614;28;20198;-74
2022/12/18 07:56:13;;;;;;;11.10;6.30;;;-4.70;99.90;;;;;;4987026;28;20188;-75
2022/12/18 07:58:41;;;;;;;10.43;6.87;;;-4.70;99.90;;;;;;4983630;28;20187;-73
2022/12/18 08:01:11;;;;;;;13.60;8.23;;;-4.70;99.90;;;;;;4963150;28;20180;-75
2022/12/18 08:03:38;;;;;;;14.63;8.17;;;-4.70;99.90;;;;;;4963176;28;20215;-76
2022/12/18 08:06:06;;;;;;;14.30;8.63;;;-4.70;99.90;;;;;;4979710;28;20179;-74
2022/12/18 08:08:32;;;;;;;16.70;9.40;;;-4.70;99.90;;;;;;4989639;28;20179;-73
2022/12/18 08:11:01;;;;;;;14.83;8.77;;;-4.70;99.90;;;;;;4979489;28;20191;-74
2022/12/18 08:13:27;;;;;;;15.70;7.97;;;-4.70;99.90;;;;;;4980264;28;20184;-74
2022/12/18 08:16:05;;;;;;;14.97;8.33;;;-4.60;99.90;;;;;;4980883;28;20455;-74
2022/12/18 08:18:35;;;;;;;14.87;8.37;;;-4.50;99.90;;;;;;4978406;28;20201;-74
2022/12/18 08:21:18;;;;;;;12.93;8.03;;;-4.50;99.90;;;;;;4984522;28;20266;-74
2022/12/18 08:23:44;;;;;;;13.20;7.90;;;-4.50;99.90;;;;;;4976133;28;20198;-74
2022/12/18 08:26:11;;;;;;;11.57;6.30;;;-4.40;99.90;;;;;;4977912;28;20327;-74
2022/12/18 08:28:39;;;;;;;13.03;6.97;;;-4.40;99.90;;;;;;4970966;28;20278;-74
2022/12/18 08:31:08;;;;;;;13.30;7.67;;;-4.30;99.90;;;;;;4977433;28;20183;-74
2022/12/18 08:33:34;;;;;;;16.27;10.13;;;-4.20;99.90;;;;;;4978547;28;20187;-74
2022/12/18 08:36:10;;;;;;;20.60;11.70;;;-4.20;99.90;;;;;;4979584;28;20235;-75
2022/12/18 08:38:35;;;;;;;17.07;9.87;;;-4.10;99.90;;;;;;4976794;28;20179;-74
2022/12/18 08:41:09;;;;;;;15.10;8.50;;;-4.00;99.90;;;;;;4982724;28;20172;-74
2022/12/18 08:46:24;;;;;;;11.33;7.00;;;-3.90;99.90;;;;;;4998698;28;20206;-74
2022/12/18 08:48:55;;;;;;;11.90;6.90;;;-3.80;99.90;;;;;;4981575;28;20298;-75
2022/12/18 08:51:21;;;;;;;10.77;6.87;;;-3.70;99.90;;;;;;4980530;28;20200;-75
2022/12/18 08:53:49;;;;;;;14.73;9.03;;;-3.70;99.90;;;;;;4990392;28;20222;-75
2022/12/18 08:56:16;;;;;;;15.47;8.60;;;-3.60;99.90;;;;;;4990420;28;20211;-74
2022/12/18 08:58:42;;;;;;;13.60;7.77;;;-3.60;99.90;;;;;;4967720;28;20179;-75
2022/12/18 09:01:12;;;;;;;11.73;7.03;;;-3.50;99.90;;;;;;4981295;28;20211;-75
2022/12/18 09:03:38;;;;;;;11.57;6.87;;;-3.40;99.90;;;;;;4978835;28;20235;-74
2022/12/18 09:06:04;;;;;;;15.07;8.37;;;-3.30;99.90;;;;;;4980498;28;20246;-74
2022/12/18 09:08:30;;;;;;;13.33;8.03;;;-3.30;99.90;;;;;;4980542;28;20290;-75
2022/12/18 09:10:58;;;;;;;16.17;9.53;;;-3.10;99.90;;;;;;4977117;28;20282;-74
2022/12/18 09:13:26;;;;;;;15.10;8.90;;;-3.00;99.90;;;;;;4979954;28;20176;-74
2022/12/18 09:15:54;;;;;;;13.27;8.47;;;-2.90;99.90;;;;;;4984909;28;20273;-74
2022/12/18 09:18:23;;;;;;;14.10;8.60;;;-2.60;99.90;;;;;;4971450;28;20183;-74
2022/12/18 09:20:51;;;;;;;12.20;6.97;;;-2.50;99.90;;;;;;4980566;28;20204;-74
2022/12/18 09:23:19;;;;;;;13.60;8.30;;;-2.30;99.90;;;;;;4977294;28;20195;-74
2022/12/18 09:25:45;;;;;;;14.60;8.90;;;-2.10;99.90;;;;;;4970046;28;20187;-74
2022/12/18 09:28:16;;;;;;;13.20;8.07;;;-2.00;99.90;;;;;;4975458;28;20214;-74
2022/12/18 09:30:45;;;;;;;13.37;8.20;;;-1.90;99.90;;;;;;4985990;28;20178;-74
2022/12/18 09:33:10;;;;;;;14.37;8.30;;;-1.80;99.90;;;;;;4977018;28;20187;-74
2022/12/18 09:35:46;;;;;;;14.00;8.17;;;-1.60;99.90;;;;;;4980016;28;20214;-75
2022/12/18 09:38:19;;;;;;;13.70;8.50;;;-1.60;99.90;;;;;;4993493;28;20251;-75
2022/12/18 09:40:59;;;;;;;12.30;8.23;;;-1.50;99.90;;;;;;4977404;28;20199;-75
2022/12/18 09:43:49;;;;;;;12.87;8.50;;;-1.30;99.90;;;;;;4973891;28;20194;-75
2022/12/18 09:46:25;;;;;;;17.10;10.17;;;-1.20;99.90;;;;;;4977326;28;20180;-75
2022/12/18 09:49:01;;;;;;;13.63;9.00;;;-1.10;99.90;;;;;;4979710;28;20171;-76
2022/12/18 09:51:39;;;;;;;12.90;8.33;;;-0.90;99.90;;;;;;4977214;28;20186;-75
2022/12/18 09:54:16;;;;;;;12.07;8.13;;;-0.90;99.90;;;;;;4977553;28;20199;-75
2022/12/18 09:56:45;;;;;;;11.87;7.53;;;-0.80;99.90;;;;;;4980040;28;20175;-76
2022/12/18 09:59:23;;;;;;;13.83;8.10;;;-0.60;99.90;;;;;;4969751;28;20183;-75
2022/12/18 10:01:49;;;;;;;15.33;9.50;;;-0.60;99.90;;;;;;4964549;28;20186;-74
2022/12/18 10:04:17;;;;;;;14.00;8.90;;;-0.50;99.90;;;;;;4973168;28;20179;-74
2022/12/18 10:06:48;;;;;;;13.57;8.40;;;-0.60;99.90;;;;;;4974815;28;20184;-75
2022/12/18 10:09:23;;;;;;;14.03;8.97;;;-0.50;99.90;;;;;;4977975;28;20183;-75
2022/12/18 10:12:15;;;;;;;16.03;8.80;;;-0.50;99.90;;;;;;4974918;28;20202;-75
2022/12/18 10:14:59;;;;;;;13.97;9.27;;;-0.50;99.90;;;;;;4974080;28;20179;-76
2022/12/18 10:17:27;;;;;;;12.37;7.87;;;-0.50;99.90;;;;;;4984081;28;20210;-75
2022/12/18 10:20:13;;;;;;;13.80;9.20;;;-0.50;99.90;;;;;;4978081;28;20175;-75
2022/12/18 10:23:31;;;;;;;13.10;8.47;;;-0.40;99.90;;;;;;4979470;28;20330;-76
2022/12/18 10:26:09;;;;;;;14.60;8.87;;;-0.40;99.90;;;;;;4887037;29;20189;-75
2022/12/18 10:28:38;;;;;;;11.90;7.77;;;-0.30;99.90;;;;;;4977565;28;20179;-75
2022/12/18 10:31:18;;;;;;;12.93;8.20;;;-0.20;99.90;;;;;;4964145;28;20196;-75
2022/12/18 10:33:44;;;;;;;12.33;8.03;;;-0.20;99.90;;;;;;4975283;28;20184;-75
2022/12/18 10:36:12;;;;;;;14.97;8.70;;;-0.10;99.90;;;;;;4992955;28;20413;-75
2022/12/18 10:38:41;;;;;;;13.37;8.97;;;0.00;99.90;;;;;;4975721;28;20207;-75
2022/12/18 10:41:26;;;;;;;15.20;9.13;;;0.10;99.90;;;;;;4974237;28;20175;-76
2022/12/18 10:44:18;;;;;;;14.53;9.17;;;0.20;99.90;;;;;;4975244;28;20210;-76
2022/12/18 10:46:47;;;;;;;14.23;9.03;;;0.30;99.90;;;;;;4973878;28;20186;-75
2022/12/18 10:49:31;;;;;;;14.33;9.60;;;0.30;99.90;;;;;;4969097;28;20214;-77
2022/12/18 10:52:17;;;;;;;16.00;10.47;;;0.40;99.90;;;;;;4960903;28;20275;-75
2022/12/18 10:55:02;;;;;;;15.07;9.83;;;0.30;99.90;;;;;;4976759;28;20255;-76
2022/12/18 10:57:32;;;;;;;14.87;9.50;;;0.30;99.90;;;;;;4978074;28;20233;-76
2022/12/18 11:00:01;;;;;;;14.13;9.00;;;0.30;99.90;;;;;;4975474;28;20182;-75
2022/12/18 11:02:36;;;;;;;15.43;9.70;;;0.50;99.90;;;;;;4971106;28;20323;-76
2022/12/18 11:05:05;;;;;;;14.20;9.67;;;0.30;99.90;;;;;;4981866;28;20189;-76
2022/12/18 11:07:50;;;;;;;13.27;8.73;;;0.30;99.90;;;;;;4984622;28;20275;-74
2022/12/18 11:10:23;;;;;;;13.00;9.00;;;0.30;99.90;;;;;;4978152;28;20199;-75
2022/12/18 11:12:51;;;;;;;15.20;9.90;;;0.30;99.90;;;;;;4970913;28;20187;-75
2022/12/18 11:15:21;;;;;;;15.97;9.87;;;0.40;99.90;;;;;;4978572;28;20202;-76
2022/12/18 11:17:53;;;;;;;12.90;8.63;;;0.30;99.90;;;;;;4978736;28;20462;-76
2022/12/18 11:20:30;;;;;;;12.10;8.40;;;0.40;99.90;;;;;;4975495;28;20266;-76
2022/12/18 11:23:10;;;;;;;12.97;8.07;;;0.40;99.90;;;;;;4986752;28;20244;-77
2022/12/18 11:25:38;;;;;;;10.43;7.13;;;0.40;99.90;;;;;;4978356;28;20171;-76
2022/12/18 11:28:26;;;;;;;17.03;10.03;;;0.50;99.90;;;;;;4978452;28;20195;-76
2022/12/18 11:31:15;;;;;;;17.43;10.27;;;0.50;99.90;;;;;;4977961;28;20210;-75
2022/12/18 11:33:49;;;;;;;14.20;9.07;;;0.50;99.90;;;;;;4975781;28;20266;-75
2022/12/18 11:36:17;;;;;;;15.30;9.33;;;0.40;99.90;;;;;;4959639;28;20176;-76
2022/12/18 11:38:47;;;;;;;14.63;9.47;;;0.40;99.90;;;;;;4969895;28;20187;-76
2022/12/18 11:42:08;;;;;;;17.03;10.33;;;0.40;99.90;;;;;;4962296;28;20179;-76
2022/12/18 11:44:26;;;;;;;14.23;9.33;;;0.40;99.90;;;;;;4992995;28;20199;-77
2022/12/18 11:47:04;;;;;;;15.30;9.73;;;0.30;99.90;;;;;;4978798;28;20202;-75
2022/12/18 11:49:35;;;;;;;16.33;9.60;;;0.20;99.90;;;;;;4978855;28;20178;-74
2022/12/18 11:52:15;;;;;;;16.10;9.90;;;0.20;99.90;;;;;;4978457;28;20203;-75
2022/12/18 11:54:43;;;;;;;17.43;10.00;;;0.20;99.90;;;;;;4990383;28;20244;-74
2022/12/18 11:57:39;;;;;;;15.63;10.20;;;0.20;99.90;;;;;;4959099;28;20176;-74
2022/12/18 12:00:14;;;;;;;15.93;10.03;;;0.10;99.90;;;;;;4959480;28;20203;-73
2022/12/18 12:03:05;;;;;;;18.23;11.17;;;0.20;99.90;;;;;;4959437;28;20258;-73
2022/12/18 12:06:06;;;;;;;16.20;9.80;;;0.10;99.90;;;;;;4959459;28;20175;-73
2022/12/18 12:08:50;;;;;;;17.27;10.53;;;0.10;99.90;;;;;;4942430;28;20183;-73
2022/12/18 12:11:37;;;;;;;18.70;11.47;;;0.00;99.90;;;;;;4970185;28;20209;-73
2022/12/18 12:14:24;;;;;;;17.83;11.43;;;0.00;99.90;;;;;;4973598;28;20190;-75
2022/12/18 12:17:05;;;;;;;15.83;10.30;;;0.00;99.90;;;;;;4970873;28;20218;-72
2022/12/18 12:19:42;;;;;;;17.47;10.97;;;-0.10;99.90;;;;;;4978167;28;20219;-74
2022/12/18 12:22:20;;;;;;;15.87;10.37;;;-0.10;99.90;;;;;;4988756;28;20203;-74
2022/12/18 12:24:57;;;;;;;17.50;10.10;;;-0.20;99.90;;;;;;4977310;28;20270;-73
2022/12/18 12:27:35;;;;;;;14.77;10.00;;;-0.10;99.90;;;;;;4978057;28;20179;-71
2022/12/18 12:30:25;;;;;;;15.30;9.80;;;-0.10;99.90;;;;;;4978261;28;20190;-73
2022/12/18 12:33:13;;;;;;;16.57;9.83;;;-0.10;99.90;;;;;;4989739;28;20167;-72
2022/12/18 12:36:04;;;;;;;15.33;10.17;;;-0.10;99.90;;;;;;4989009;28;20199;-73
2022/12/18 12:38:50;;;;;;;14.37;9.47;;;0.00;99.90;;;;;;4975147;28;20183;-74
2022/12/18 12:44:18;;;;;;;18.90;11.13;;;0.00;99.90;;;;;;4997603;28;20214;-73
2022/12/18 12:46:46;;;;;;;16.00;10.43;;;0.00;99.90;;;;;;4971404;28;20175;-74
2022/12/18 12:49:16;;;;;;;15.73;10.53;;;0.00;99.90;;;;;;4962381;28;20207;-72
2022/12/18 12:51:52;;;;;;;19.67;12.17;;;0.10;99.90;;;;;;4965989;28;20178;-76
2022/12/18 12:54:24;;;;;;;16.57;10.80;;;0.00;99.90;;;;;;4981361;28;20179;-73
2022/12/18 12:57:24;;;;;;;16.27;10.13;;;0.00;99.90;;;;;;4976490;28;20211;-72
2022/12/18 13:00:15;;;;;;;17.17;10.53;;;0.10;99.90;;;;;;4929962;28;20202;-74
2022/12/18 13:03:04;;;;;;;14.67;9.37;;;0.10;99.90;;;;;;4964856;28;20220;-74
2022/12/18 13:05:58;;;;;;;13.97;9.43;;;0.10;99.90;;;;;;4978167;28;20180;-75
2022/12/18 13:08:29;;;;;;;16.63;9.40;;;0.10;99.90;;;;;;4977775;28;20207;-74